Time;durP1;ratioP1;P1;durP2;ratioP2;P2;SDS_P1;SDS_P2;PMS_P1;PMS_P2;Temp;Humidity;BMP_temperature;BMP_pressure;BME280_temperature;BME280_humidity;BME280_pressure;Samples;Min_cycle;Max_cycle;Signal;HPM_P1;HPM_P2
2021/08/03 00:00:03;;;;;;;1.05;0.20;;;15.20;76.60;;;;;;5115097;28;20108;-77
2021/08/03 00:02:42;;;;;;;4.43;0.60;;;15.20;76.70;;;;;;5116358;28;20047;-77
2021/08/03 00:05:16;;;;;;;0.57;0.20;;;15.10;76.80;;;;;;5111389;28;20048;-77
2021/08/03 00:07:45;;;;;;;0.40;0.30;;;15.10;76.90;;;;;;5104164;28;20040;-77
2021/08/03 00:10:17;;;;;;;0.63;0.10;;;15.10;77.00;;;;;;5113982;27;20122;-76
2021/08/03 00:12:52;;;;;;;2.08;0.20;;;15.00;77.00;;;;;;5104158;28;20036;-77
2021/08/03 00:15:21;;;;;;;0.90;0.30;;;15.00;77.00;;;;;;5109501;28;20484;-77
2021/08/03 00:17:53;;;;;;;0.30;0.10;;;15.00;77.10;;;;;;5098552;28;20100;-77
2021/08/03 00:20:22;;;;;;;0.35;0.10;;;14.90;77.20;;;;;;5112898;27;20043;-77
2021/08/03 00:22:49;;;;;;;1.65;0.10;;;14.90;77.20;;;;;;5093623;28;20044;-77
2021/08/03 00:25:17;;;;;;;0.52;0.10;;;14.90;77.30;;;;;;5111247;28;20131;-77
2021/08/03 00:27:44;;;;;;;0.90;0.20;;;14.90;77.30;;;;;;5114879;28;20040;-77
2021/08/03 00:30:12;;;;;;;1.45;0.17;;;14.90;77.40;;;;;;5064430;28;20040;-77
2021/08/03 00:32:40;;;;;;;0.80;0.20;;;14.80;77.40;;;;;;5115097;28;20035;-77
2021/08/03 00:35:08;;;;;;;0.75;0.20;;;14.80;77.50;;;;;;5100158;28;20044;-77
2021/08/03 00:37:36;;;;;;;1.00;0.20;;;14.80;77.60;;;;;;5106778;28;20048;-77
2021/08/03 00:40:05;;;;;;;0.95;0.10;;;14.80;77.60;;;;;;5090506;28;20044;-77
2021/08/03 00:42:32;;;;;;;1.67;0.20;;;14.80;77.70;;;;;;5089863;28;20040;-77
2021/08/03 00:44:59;;;;;;;0.47;0.10;;;14.80;77.70;;;;;;5106611;28;20467;-77
2021/08/03 00:47:33;;;;;;;1.33;0.10;;;14.80;77.80;;;;;;5102054;28;20441;-77
2021/08/03 00:50:08;;;;;;;0.50;0.10;;;14.80;77.90;;;;;;5105687;28;20495;-77
2021/08/03 00:52:38;;;;;;;0.40;0.10;;;14.70;77.90;;;;;;5109570;28;20078;-77
2021/08/03 00:55:08;;;;;;;0.68;0.17;;;14.80;77.90;;;;;;5082833;28;20123;-77
2021/08/03 00:57:36;;;;;;;0.30;0.10;;;14.80;78.00;;;;;;5117199;27;20519;-77
2021/08/03 01:00:06;;;;;;;0.30;0.10;;;14.80;78.00;;;;;;5116765;27;20047;-77
2021/08/03 01:02:33;;;;;;;0.73;0.25;;;14.80;78.00;;;;;;5111454;28;20040;-77
2021/08/03 01:05:04;;;;;;;1.38;0.17;;;14.80;78.10;;;;;;5070089;28;20062;-77
2021/08/03 01:07:56;;;;;;;0.43;0.10;;;14.80;78.10;;;;;;5095434;28;20127;-77
2021/08/03 01:11:01;;;;;;;0.35;0.10;;;14.80;78.10;;;;;;5112288;28;20767;-77
2021/08/03 01:13:55;;;;;;;0.55;0.05;;;14.80;78.10;;;;;;5093099;28;20376;-76
2021/08/03 01:16:29;;;;;;;1.48;0.10;;;14.70;78.20;;;;;;5113681;27;20032;-76
2021/08/03 01:19:19;;;;;;;1.17;0.10;;;14.70;78.30;;;;;;5117035;27;20055;-77
2021/08/03 01:21:56;;;;;;;;;;;14.70;78.30;;;;;;5112476;27;20027;-77
2021/08/03 01:24:35;;;;;;;0.30;0.10;;;14.60;78.20;;;;;;5107865;28;19920;-76
2021/08/03 01:27:32;;;;;;;0.20;0.10;;;14.60;78.40;;;;;;5107277;27;20054;-77
2021/08/03 01:30:00;;;;;;;0.77;0.17;;;14.60;78.40;;;;;;5112321;28;20088;-77
2021/08/03 01:32:31;;;;;;;0.10;0.10;;;14.60;78.50;;;;;;5080166;28;20499;-77
2021/08/03 01:35:02;;;;;;;1.25;0.13;;;14.60;78.50;;;;;;5108820;28;20096;-76
2021/08/03 01:37:32;;;;;;;0.32;0.10;;;14.60;78.50;;;;;;5109996;28;20031;-77
2021/08/03 01:40:06;;;;;;;0.17;0.08;;;14.60;78.60;;;;;;5112629;28;20084;-77
2021/08/03 01:42:43;;;;;;;2.30;0.10;;;14.60;78.70;;;;;;5095994;28;20043;-76
2021/08/03 01:45:13;;;;;;;1.58;0.10;;;14.50;78.80;;;;;;5095832;28;20039;-77
2021/08/03 01:47:41;;;;;;;0.20;0.10;;;14.50;78.90;;;;;;5112770;28;20055;-77
2021/08/03 01:50:09;;;;;;;1.42;0.10;;;14.50;78.90;;;;;;5111087;28;20046;-77
2021/08/03 01:52:41;;;;;;;0.90;0.10;;;14.50;79.00;;;;;;5111161;28;20063;-77
2021/08/03 01:55:17;;;;;;;0.38;0.10;;;14.40;79.00;;;;;;5111808;28;20028;-77
2021/08/03 01:57:45;;;;;;;0.47;0.15;;;14.40;79.10;;;;;;5108648;27;20123;-76
2021/08/03 02:00:23;;;;;;;0.60;0.28;;;14.40;79.20;;;;;;5104642;27;20039;-77
2021/08/03 02:03:11;;;;;;;0.20;0.08;;;14.40;79.30;;;;;;5118482;27;20059;-77
2021/08/03 02:05:41;;;;;;;0.43;0.10;;;14.30;79.30;;;;;;5109981;27;20138;-77
2021/08/03 02:08:22;;;;;;;0.85;0.10;;;14.30;79.40;;;;;;5112281;27;20043;-76
2021/08/03 02:11:04;;;;;;;0.10;0.00;;;14.30;80.10;;;;;;5116860;27;20047;-77
2021/08/03 02:13:32;;;;;;;0.50;0.10;;;14.30;79.60;;;;;;5112405;28;20643;-77
2021/08/03 02:15:59;;;;;;;0.50;0.08;;;14.30;79.70;;;;;;5112663;27;20171;-77
2021/08/03 02:18:28;;;;;;;0.30;0.10;;;14.20;79.70;;;;;;5108304;28;20048;-77
2021/08/03 02:20:56;;;;;;;0.30;0.10;;;14.20;79.80;;;;;;5113009;28;20039;-77
2021/08/03 02:23:29;;;;;;;0.35;0.10;;;14.20;79.90;;;;;;5114874;27;20032;-77
2021/08/03 02:26:02;;;;;;;0.15;0.10;;;14.20;79.90;;;;;;5094545;28;20494;-77
2021/08/03 02:28:30;;;;;;;0.10;0.10;;;14.20;79.90;;;;;;5090367;27;20138;-77
2021/08/03 02:31:04;;;;;;;0.38;0.10;;;14.20;80.00;;;;;;5114142;27;20387;-77
2021/08/03 02:33:39;;;;;;;0.28;0.10;;;14.20;80.00;;;;;;5112819;28;20051;-77
2021/08/03 02:36:16;;;;;;;0.20;0.10;;;14.20;80.10;;;;;;5126463;27;20041;-77
2021/08/03 02:38:46;;;;;;;1.08;0.25;;;14.20;80.20;;;;;;5128955;27;20054;-77
2021/08/03 02:41:20;;;;;;;0.50;0.10;;;14.10;80.20;;;;;;5096476;28;20044;-77
2021/08/03 02:43:52;;;;;;;0.28;0.10;;;14.10;80.20;;;;;;5089483;28;20333;-77
2021/08/03 02:46:23;;;;;;;0.68;0.20;;;14.10;80.30;;;;;;5112052;28;20043;-78
2021/08/03 02:49:02;;;;;;;0.10;0.00;;;14.10;80.30;;;;;;5110655;27;20039;-77
2021/08/03 02:51:32;;;;;;;0.20;0.10;;;14.10;80.30;;;;;;5112813;28;20040;-77
2021/08/03 02:54:11;;;;;;;1.02;0.08;;;14.10;80.30;;;;;;5114258;28;20066;-76
2021/08/03 02:56:39;;;;;;;0.40;0.10;;;14.10;80.30;;;;;;5112221;28;20491;-77
2021/08/03 02:59:10;;;;;;;0.57;0.10;;;14.10;80.30;;;;;;5099401;28;20052;-77
2021/08/03 03:01:41;;;;;;;1.08;0.20;;;14.20;80.40;;;;;;5111648;28;20084;-77
2021/08/03 03:04:21;;;;;;;0.38;0.10;;;14.20;80.40;;;;;;5103466;28;20050;-77
2021/08/03 03:06:54;;;;;;;0.10;0.10;;;14.20;80.40;;;;;;5110667;28;20054;-76
2021/08/03 03:09:27;;;;;;;0.80;0.10;;;14.20;80.50;;;;;;5124730;27;20074;-77
2021/08/03 03:11:56;;;;;;;0.15;0.10;;;14.20;81.10;;;;;;5099841;28;20402;-77
2021/08/03 03:14:25;;;;;;;1.38;0.10;;;14.20;80.50;;;;;;5111433;28;20046;-77
2021/08/03 03:16:56;;;;;;;0.25;0.10;;;14.20;80.60;;;;;;5097998;28;20119;-77
2021/08/03 03:19:25;;;;;;;0.20;0.10;;;14.10;80.60;;;;;;5127513;28;20039;-77
2021/08/03 03:21:53;;;;;;;0.80;0.17;;;14.20;80.70;;;;;;5109488;28;20044;-77
2021/08/03 03:24:23;;;;;;;0.50;0.10;;;14.20;80.70;;;;;;5111307;28;20433;-77
2021/08/03 03:26:51;;;;;;;0.13;0.10;;;14.20;80.80;;;;;;5094557;28;20039;-77
2021/08/03 03:29:19;;;;;;;0.55;0.08;;;14.20;80.80;;;;;;5083022;28;20047;-77
2021/08/03 03:31:47;;;;;;;0.85;0.10;;;14.10;80.80;;;;;;5111093;28;20403;-77
2021/08/03 03:34:17;;;;;;;0.35;0.17;;;14.20;80.80;;;;;;5098308;28;20483;-77
2021/08/03 03:36:49;;;;;;;0.95;0.13;;;14.20;80.90;;;;;;5115321;28;20495;-77
2021/08/03 03:39:17;;;;;;;0.43;0.13;;;14.20;80.90;;;;;;5116655;28;20055;-77
2021/08/03 03:41:54;;;;;;;0.30;0.10;;;14.20;81.00;;;;;;5115326;28;20043;-77
2021/08/03 03:44:21;;;;;;;0.70;0.20;;;14.10;81.00;;;;;;5115332;28;20459;-77
2021/08/03 03:47:17;;;;;;;2.42;0.25;;;14.10;81.00;;;;;;5132320;27;20051;-77
2021/08/03 03:49:51;;;;;;;0.20;0.10;;;14.20;81.00;;;;;;5123364;27;20085;-77
2021/08/03 03:52:21;;;;;;;1.63;0.20;;;14.10;81.10;;;;;;5118426;27;20554;-77
2021/08/03 03:54:51;;;;;;;1.48;0.20;;;14.10;81.20;;;;;;5122364;27;21000;-77
2021/08/03 03:57:21;;;;;;;0.30;0.10;;;14.10;81.30;;;;;;5098553;28;20039;-77
2021/08/03 03:59:50;;;;;;;1.23;0.10;;;14.10;81.50;;;;;;5104271;28;20360;-77
2021/08/03 04:02:20;;;;;;;0.40;0.10;;;14.10;81.30;;;;;;5114777;28;20556;-77
2021/08/03 04:04:49;;;;;;;0.50;0.27;;;14.10;81.30;;;;;;5114634;28;20051;-77
2021/08/03 04:07:17;;;;;;;0.63;0.30;;;14.10;81.30;;;;;;5098034;28;20424;-77
2021/08/03 04:09:44;;;;;;;0.30;0.10;;;14.10;81.40;;;;;;5115964;28;20530;-77
2021/08/03 04:12:14;;;;;;;0.30;0.20;;;14.10;81.40;;;;;;5114342;28;20038;-77
2021/08/03 04:14:43;;;;;;;0.68;0.17;;;14.10;81.40;;;;;;5117200;28;20027;-77
2021/08/03 04:17:12;;;;;;;0.55;0.30;;;14.10;81.40;;;;;;5101040;28;20044;-77
2021/08/03 04:19:43;;;;;;;0.50;0.20;;;14.10;81.40;;;;;;5114562;28;20521;-77
2021/08/03 04:22:10;;;;;;;0.93;0.10;;;14.20;81.40;;;;;;5115890;28;20039;-77
2021/08/03 04:24:37;;;;;;;0.38;0.13;;;14.10;81.30;;;;;;5094314;28;20369;-77
2021/08/03 04:27:04;;;;;;;0.43;0.10;;;14.20;81.40;;;;;;5090009;28;20043;-77
2021/08/03 04:29:31;;;;;;;0.25;0.10;;;14.20;81.40;;;;;;5111584;28;20052;-77
2021/08/03 04:31:58;;;;;;;1.33;0.13;;;14.20;81.40;;;;;;5109717;27;20044;-77
2021/08/03 04:34:25;;;;;;;0.40;0.10;;;14.20;81.40;;;;;;5109324;27;20066;-77
2021/08/03 04:36:52;;;;;;;0.20;0.10;;;14.20;81.30;;;;;;5081810;28;20093;-77
2021/08/03 04:39:19;;;;;;;0.35;0.15;;;14.20;81.30;;;;;;5103124;28;20040;-77
2021/08/03 04:41:46;;;;;;;1.08;0.10;;;14.20;81.30;;;;;;5113615;27;20082;-77
2021/08/03 04:44:13;;;;;;;1.05;0.20;;;14.20;81.40;;;;;;5087315;28;20036;-77
2021/08/03 04:46:41;;;;;;;1.02;0.20;;;14.20;81.40;;;;;;5111928;28;20070;-77
2021/08/03 04:49:08;;;;;;;0.35;0.20;;;14.20;81.50;;;;;;5099218;28;20073;-75
2021/08/03 04:51:35;;;;;;;0.52;0.20;;;14.20;81.50;;;;;;5095208;28;20043;-75
2021/08/03 04:54:03;;;;;;;0.47;0.20;;;14.20;81.40;;;;;;5077640;28;20040;-75
2021/08/03 04:56:31;;;;;;;0.50;0.10;;;14.20;81.40;;;;;;5113806;28;20047;-75
2021/08/03 04:58:59;;;;;;;0.90;0.20;;;14.30;81.40;;;;;;5109409;28;20031;-75
2021/08/03 05:01:26;;;;;;;0.55;0.20;;;14.30;81.30;;;;;;5112496;27;20116;-75
2021/08/03 05:03:53;;;;;;;1.38;0.30;;;14.40;81.30;;;;;;5111208;27;20552;-75
2021/08/03 05:06:20;;;;;;;0.30;0.20;;;14.40;81.20;;;;;;5112136;28;20051;-75
2021/08/03 05:08:47;;;;;;;1.17;0.30;;;14.40;81.10;;;;;;5115749;27;20039;-75
2021/08/03 05:11:14;;;;;;;0.32;0.20;;;14.50;80.90;;;;;;5107718;28;20471;-75
2021/08/03 05:13:41;;;;;;;0.45;0.20;;;14.60;80.90;;;;;;5094903;28;20081;-75
2021/08/03 05:16:07;;;;;;;1.65;0.40;;;14.60;80.70;;;;;;5111941;28;20619;-74
2021/08/03 05:18:35;;;;;;;1.38;0.20;;;14.70;80.60;;;;;;5112198;27;20164;-75
2021/08/03 05:21:02;;;;;;;1.02;0.30;;;14.80;80.60;;;;;;5092702;28;20044;-74
2021/08/03 05:23:29;;;;;;;1.50;0.30;;;14.80;80.40;;;;;;5111563;28;20071;-75
2021/08/03 05:25:56;;;;;;;1.05;0.20;;;14.80;80.40;;;;;;5113764;27;20122;-75
2021/08/03 05:28:23;;;;;;;1.35;0.38;;;14.90;81.00;;;;;;5113178;28;20036;-75
2021/08/03 05:30:50;;;;;;;0.70;0.30;;;14.90;80.40;;;;;;5088842;28;20059;-75
2021/08/03 05:33:17;;;;;;;1.20;0.45;;;14.90;80.40;;;;;;5112703;28;20053;-75
2021/08/03 05:35:44;;;;;;;2.25;0.35;;;14.90;80.30;;;;;;5111358;28;20036;-75
2021/08/03 05:38:11;;;;;;;1.58;0.40;;;15.00;80.20;;;;;;5095911;27;20042;-75
2021/08/03 05:40:38;;;;;;;1.40;0.30;;;15.10;80.00;;;;;;5112713;27;20096;-75
2021/08/03 05:43:05;;;;;;;0.60;0.30;;;15.20;79.90;;;;;;5111008;28;20092;-75
2021/08/03 05:45:32;;;;;;;0.65;0.20;;;15.30;79.80;;;;;;5113045;28;20131;-75
2021/08/03 05:47:59;;;;;;;0.45;0.20;;;15.30;79.70;;;;;;5094809;28;20035;-75
2021/08/03 05:50:26;;;;;;;0.70;0.30;;;15.40;79.70;;;;;;5113262;27;20043;-75
2021/08/03 05:52:53;;;;;;;0.75;0.30;;;15.40;79.60;;;;;;5110393;28;20040;-75
2021/08/03 05:55:20;;;;;;;0.75;0.30;;;15.50;79.60;;;;;;5093884;28;20036;-75
2021/08/03 05:57:47;;;;;;;1.48;0.30;;;15.50;79.60;;;;;;5118454;27;20372;-75
2021/08/03 06:00:15;;;;;;;0.52;0.20;;;15.50;79.60;;;;;;5112011;28;20044;-75
2021/08/03 06:02:42;;;;;;;0.65;0.20;;;15.50;79.60;;;;;;5111043;28;20040;-75
2021/08/03 06:05:10;;;;;;;0.60;0.30;;;15.60;79.60;;;;;;5110681;28;20136;-75
2021/08/03 06:07:44;;;;;;;0.63;0.20;;;15.60;79.60;;;;;;5105969;28;20110;-75
2021/08/03 06:10:15;;;;;;;1.15;0.40;;;15.60;79.60;;;;;;5111396;27;20065;-75
2021/08/03 06:12:49;;;;;;;1.67;0.43;;;15.60;79.60;;;;;;5110799;28;20043;-75
2021/08/03 06:15:17;;;;;;;1.33;0.65;;;15.70;79.60;;;;;;5112531;27;20042;-75
2021/08/03 06:17:47;;;;;;;0.52;0.30;;;15.70;79.50;;;;;;5091823;28;20086;-75
2021/08/03 06:20:15;;;;;;;0.73;0.38;;;15.70;79.50;;;;;;5107960;28;20121;-75
2021/08/03 06:22:42;;;;;;;1.10;0.45;;;15.70;79.50;;;;;;5110256;28;20066;-75
2021/08/03 06:25:13;;;;;;;1.27;0.30;;;15.70;79.40;;;;;;5110332;28;20044;-75
2021/08/03 06:27:42;;;;;;;0.85;0.35;;;15.70;79.40;;;;;;5113732;27;20040;-75
2021/08/03 06:30:10;;;;;;;1.95;0.40;;;15.70;79.40;;;;;;5110588;28;20104;-75
2021/08/03 06:32:44;;;;;;;1.90;0.52;;;15.70;79.40;;;;;;5077157;28;20039;-75
2021/08/03 06:35:15;;;;;;;1.42;0.45;;;15.80;79.40;;;;;;5106903;28;20043;-75
2021/08/03 06:37:42;;;;;;;0.70;0.30;;;15.80;79.30;;;;;;5111706;28;20046;-75
2021/08/03 06:40:10;;;;;;;1.70;0.30;;;15.80;79.30;;;;;;5117069;27;20475;-75
2021/08/03 06:42:48;;;;;;;0.77;0.30;;;15.80;79.20;;;;;;5112125;28;20043;-75
2021/08/03 06:45:27;;;;;;;0.98;0.32;;;15.90;79.20;;;;;;5111262;28;20036;-75
2021/08/03 06:48:03;;;;;;;1.08;0.40;;;15.90;79.20;;;;;;5103672;28;20449;-75
2021/08/03 06:50:38;;;;;;;0.73;0.30;;;15.90;79.20;;;;;;5110059;28;20035;-75
2021/08/03 06:53:06;;;;;;;0.80;0.30;;;16.00;79.10;;;;;;5110867;28;20039;-75
2021/08/03 06:55:34;;;;;;;1.10;0.40;;;16.00;79.10;;;;;;5107052;28;20035;-75
2021/08/03 06:58:04;;;;;;;0.88;0.40;;;16.00;79.00;;;;;;5111839;28;20058;-75
2021/08/03 07:00:40;;;;;;;1.30;0.47;;;16.10;78.90;;;;;;5109921;28;20112;-75
2021/08/03 07:03:08;;;;;;;0.82;0.35;;;16.10;78.90;;;;;;5110308;28;20480;-75
2021/08/03 07:05:51;;;;;;;0.80;0.30;;;16.10;78.90;;;;;;5106437;28;20048;-75
2021/08/03 07:08:19;;;;;;;2.33;0.80;;;16.20;78.80;;;;;;5111909;28;20039;-75
2021/08/03 07:10:50;;;;;;;1.55;0.43;;;16.20;78.80;;;;;;5115895;27;20036;-75
2021/08/03 07:13:18;;;;;;;1.25;0.50;;;16.20;78.80;;;;;;5108678;28;20032;-75
2021/08/03 07:15:46;;;;;;;1.75;0.40;;;16.20;79.40;;;;;;5101724;28;20040;-75
2021/08/03 07:18:18;;;;;;;1.90;0.30;;;16.20;78.80;;;;;;5114174;28;20039;-75
2021/08/03 07:20:45;;;;;;;1.70;0.40;;;16.30;78.80;;;;;;5114139;28;20099;-75
2021/08/03 07:23:15;;;;;;;1.27;0.57;;;16.30;78.80;;;;;;5097014;27;20122;-75
2021/08/03 07:25:43;;;;;;;1.13;0.40;;;16.30;78.80;;;;;;5097942;28;20047;-75
2021/08/03 07:28:10;;;;;;;1.20;0.57;;;16.30;78.70;;;;;;5115066;27;20515;-75
2021/08/03 07:30:37;;;;;;;1.90;1.17;;;16.40;78.70;;;;;;5116695;27;20043;-75
2021/08/03 07:33:04;;;;;;;1.88;0.70;;;16.40;79.30;;;;;;5096525;27;20035;-75
2021/08/03 07:35:31;;;;;;;1.73;0.57;;;16.40;78.60;;;;;;5114347;27;20059;-75
2021/08/03 07:37:58;;;;;;;2.38;0.60;;;16.50;78.60;;;;;;5083138;28;20053;-75
2021/08/03 07:40:25;;;;;;;1.63;0.70;;;16.50;78.50;;;;;;5109892;28;20067;-75
2021/08/03 07:42:52;;;;;;;2.03;0.85;;;16.50;78.50;;;;;;5110774;28;20050;-76
2021/08/03 07:45:18;;;;;;;2.10;0.98;;;16.60;78.40;;;;;;5112767;28;20068;-76
2021/08/03 07:47:46;;;;;;;1.50;0.70;;;16.70;78.40;;;;;;5111936;28;20050;-76
2021/08/03 07:50:13;;;;;;;1.95;0.88;;;16.80;78.20;;;;;;5092206;28;20430;-76
2021/08/03 07:52:40;;;;;;;3.00;1.00;;;16.90;78.00;;;;;;5111800;27;20491;-76
2021/08/03 07:55:09;;;;;;;3.38;1.05;;;17.00;77.80;;;;;;5113589;27;20039;-76
2021/08/03 07:57:36;;;;;;;2.33;0.90;;;17.20;77.70;;;;;;5093458;28;20075;-76
2021/08/03 08:00:03;;;;;;;2.67;1.45;;;17.30;77.40;;;;;;5110186;28;20123;-79
2021/08/03 08:02:31;;;;;;;4.05;1.85;;;17.40;77.20;;;;;;5095763;28;20567;-76
2021/08/03 08:04:58;;;;;;;3.45;0.90;;;17.50;77.10;;;;;;5097343;28;20119;-79
2021/08/03 08:07:27;;;;;;;3.13;0.95;;;17.60;77.00;;;;;;5097110;28;20036;-78
2021/08/03 08:09:55;;;;;;;2.95;1.33;;;17.60;76.90;;;;;;5116259;27;20127;-78
2021/08/03 08:12:22;;;;;;;4.00;1.35;;;17.60;76.80;;;;;;5096935;28;20095;-76
2021/08/03 08:14:51;;;;;;;2.53;1.33;;;17.60;76.90;;;;;;5097621;28;20055;-75
2021/08/03 08:17:18;;;;;;;2.50;1.13;;;17.60;77.00;;;;;;5096292;28;20043;-75
2021/08/03 08:19:45;;;;;;;2.55;0.75;;;17.60;77.00;;;;;;5095974;28;20039;-77
2021/08/03 08:22:15;;;;;;;4.03;1.38;;;17.60;77.10;;;;;;5090176;28;20127;-76
2021/08/03 08:24:42;;;;;;;3.40;1.58;;;17.60;77.00;;;;;;5092273;28;20055;-76
2021/08/03 08:27:09;;;;;;;4.78;1.70;;;17.70;76.90;;;;;;5102053;28;20044;-77
2021/08/03 08:29:36;;;;;;;3.15;1.70;;;17.70;76.90;;;;;;5083462;28;20089;-77
2021/08/03 08:32:04;;;;;;;3.30;1.60;;;17.80;76.70;;;;;;5114570;28;20038;-77
2021/08/03 08:34:31;;;;;;;3.00;1.60;;;17.90;76.60;;;;;;5080626;28;20067;-77
2021/08/03 08:37:00;;;;;;;4.13;2.13;;;18.00;76.40;;;;;;5080228;28;20457;-77
2021/08/03 08:39:27;;;;;;;3.50;1.92;;;18.10;76.30;;;;;;5097684;28;20036;-78
2021/08/03 08:41:55;;;;;;;3.10;1.40;;;18.10;76.20;;;;;;5093369;28;20063;-77
2021/08/03 08:44:22;;;;;;;4.90;2.45;;;18.20;76.10;;;;;;5071144;28;20372;-77
2021/08/03 08:46:51;;;;;;;4.47;2.08;;;18.30;76.00;;;;;;5096458;28;20056;-77
2021/08/03 08:49:19;;;;;;;3.25;1.77;;;18.30;75.90;;;;;;5109382;28;20051;-77
2021/08/03 08:51:46;;;;;;;4.28;2.17;;;18.30;75.90;;;;;;5113447;28;20063;-77
2021/08/03 08:54:15;;;;;;;4.05;1.95;;;18.30;76.00;;;;;;5112191;28;20501;-77
2021/08/03 08:56:42;;;;;;;4.20;2.08;;;18.30;76.00;;;;;;5114865;27;20370;-77
2021/08/03 08:59:09;;;;;;;3.55;1.90;;;18.30;76.00;;;;;;5091000;28;20115;-77
2021/08/03 09:01:36;;;;;;;2.85;1.48;;;18.30;76.10;;;;;;5112890;28;20035;-77
2021/08/03 09:04:06;;;;;;;3.20;1.63;;;18.30;76.00;;;;;;5092448;28;20036;-75
2021/08/03 09:06:33;;;;;;;4.32;1.50;;;18.40;76.10;;;;;;5109971;28;20598;-76
2021/08/03 09:09:13;;;;;;;4.03;1.65;;;18.40;76.00;;;;;;5104441;28;20114;-76
2021/08/03 09:11:47;;;;;;;4.55;1.65;;;18.50;75.90;;;;;;5093305;28;20048;-76
2021/08/03 09:14:38;;;;;;;3.28;1.58;;;18.50;75.80;;;;;;5102706;28;20112;-76
2021/08/03 09:17:06;;;;;;;4.40;2.25;;;18.60;75.60;;;;;;5108198;28;20517;-75
2021/08/03 09:19:41;;;;;;;3.72;1.48;;;18.70;75.50;;;;;;5108549;28;20399;-78
2021/08/03 09:22:17;;;;;;;4.60;1.80;;;18.90;75.20;;;;;;5104498;28;20043;-78
2021/08/03 09:24:47;;;;;;;2.03;0.90;;;19.10;75.00;;;;;;5095386;28;20051;-78
2021/08/03 09:27:34;;;;;;;4.20;1.80;;;19.30;74.70;;;;;;5091298;28;20051;-78
2021/08/03 09:30:02;;;;;;;4.10;2.05;;;19.40;74.30;;;;;;5111104;28;20040;-77
2021/08/03 09:32:35;;;;;;;3.90;2.00;;;19.50;75.00;;;;;;5128541;27;20067;-78
2021/08/03 09:35:17;;;;;;;3.42;1.92;;;19.60;74.00;;;;;;5113843;27;20126;-78
2021/08/03 09:37:45;;;;;;;4.47;2.03;;;19.60;73.70;;;;;;5113976;28;20031;-77
2021/08/03 09:40:33;;;;;;;3.00;1.63;;;19.80;73.60;;;;;;5114659;27;20031;-77
2021/08/03 09:43:07;;;;;;;4.95;2.90;;;20.00;73.30;;;;;;5110862;28;20081;-80
2021/08/03 09:45:56;;;;;;;3.47;1.95;;;20.10;73.10;;;;;;5078817;28;20063;-81
2021/08/03 09:48:25;;;;;;;3.47;1.60;;;20.20;72.90;;;;;;5092029;28;20046;-80
2021/08/03 09:50:57;;;;;;;5.18;2.70;;;20.40;72.80;;;;;;5108905;27;20181;-79
2021/08/03 09:53:53;;;;;;;4.40;1.80;;;20.50;72.40;;;;;;5117011;27;20032;-81
2021/08/03 09:56:45;;;;;;;3.72;1.73;;;20.70;72.10;;;;;;5098604;28;20130;-82
2021/08/03 09:59:12;;;;;;;3.92;1.85;;;20.80;72.10;;;;;;5086499;28;20360;-83
2021/08/03 10:01:41;;;;;;;4.18;2.10;;;20.90;71.80;;;;;;5085435;28;20043;-83
2021/08/03 10:04:11;;;;;;;4.80;2.63;;;21.10;72.20;;;;;;5075732;28;20071;-83
2021/08/03 10:06:40;;;;;;;6.65;3.50;;;21.10;71.40;;;;;;5129976;27;20441;-83
2021/08/03 10:09:09;;;;;;;5.30;3.53;;;21.10;71.10;;;;;;5110562;28;20050;-82
2021/08/03 10:11:36;;;;;;;4.80;3.10;;;21.00;71.30;;;;;;5110433;28;20433;-76
2021/08/03 10:14:23;;;;;;;5.40;3.15;;;21.00;71.40;;;;;;5089847;28;20126;-76
2021/08/03 10:16:51;;;;;;;5.10;3.60;;;21.00;71.30;;;;;;5109744;28;20110;-76
2021/08/03 10:19:26;;;;;;;5.95;3.30;;;21.00;71.20;;;;;;5106895;28;20363;-77
2021/08/03 10:22:08;;;;;;;5.28;2.58;;;21.00;72.00;;;;;;5109906;28;20051;-77
2021/08/03 10:24:40;;;;;;;7.35;3.58;;;21.00;71.40;;;;;;5110758;28;20044;-77
2021/08/03 10:27:17;;;;;;;5.40;3.53;;;20.90;71.30;;;;;;5111193;28;20039;-77
2021/08/03 10:29:57;;;;;;;6.10;3.40;;;20.80;71.30;;;;;;5094749;28;20043;-77
2021/08/03 10:32:43;;;;;;;4.88;2.92;;;20.80;71.40;;;;;;5101194;28;20028;-78
2021/08/03 10:35:15;;;;;;;6.60;4.07;;;20.80;71.30;;;;;;5107894;28;20039;-78
2021/08/03 10:37:58;;;;;;;7.13;3.67;;;21.00;71.10;;;;;;5088815;28;20055;-78
2021/08/03 10:40:44;;;;;;;7.20;4.72;;;21.30;70.50;;;;;;5106254;28;20035;-78
2021/08/03 10:43:26;;;;;;;9.00;5.35;;;21.60;70.10;;;;;;5110837;28;20455;-79
2021/08/03 10:46:19;;;;;;;5.35;4.07;;;21.70;69.70;;;;;;5112795;27;20101;-78
2021/08/03 10:48:47;;;;;;;5.90;4.47;;;21.80;69.50;;;;;;5105078;27;20040;-78
2021/08/03 10:51:17;;;;;;;6.03;4.38;;;21.90;69.50;;;;;;5072535;28;20064;-78
2021/08/03 10:54:04;;;;;;;6.82;4.65;;;22.00;69.20;;;;;;5110617;27;20036;-75
2021/08/03 10:56:53;;;;;;;6.22;4.22;;;22.20;68.80;;;;;;5112940;28;20055;-75
2021/08/03 10:59:36;;;;;;;6.22;4.38;;;22.20;68.70;;;;;;5096421;28;20035;-76
2021/08/03 11:02:08;;;;;;;8.52;4.60;;;22.20;68.80;;;;;;5095726;28;20052;-80
2021/08/03 11:04:41;;;;;;;;;;;22.20;68.80;;;;;;5111229;28;20040;-80
2021/08/03 11:07:27;;;;;;;6.38;4.72;;;22.10;69.00;;;;;;5106448;28;19951;-80
2021/08/03 11:10:18;;;;;;;5.28;3.88;;;22.20;68.70;;;;;;5109073;28;20047;-81
2021/08/03 11:12:51;;;;;;;8.00;4.60;;;22.10;68.80;;;;;;5117966;28;20058;-80
2021/08/03 11:15:21;;;;;;;7.03;4.20;;;22.00;68.80;;;;;;5098994;28;20047;-80
2021/08/03 11:17:51;;;;;;;9.50;5.72;;;21.90;69.00;;;;;;5095112;28;20045;-81
2021/08/03 11:20:34;;;;;;;6.45;4.82;;;21.80;69.00;;;;;;5107656;28;20044;-78
2021/08/03 11:23:04;;;;;;;;;;;21.70;69.20;;;;;;5117780;28;20038;-81
2021/08/03 11:25:31;;;;;;;5.20;3.92;;;21.50;69.60;;;;;;5105210;28;20010;-79
2021/08/03 11:28:11;;;;;;;6.38;4.15;;;21.40;69.60;;;;;;5118025;28;20039;-79
2021/08/03 11:30:39;;;;;;;7.28;5.25;;;21.40;69.60;;;;;;5109331;28;20040;-79
2021/08/03 11:33:07;;;;;;;6.55;3.53;;;21.30;69.60;;;;;;5093949;28;20059;-78
2021/08/03 11:35:34;;;;;;;6.30;4.35;;;21.20;69.60;;;;;;5077452;28;20048;-77
2021/08/03 11:38:06;;;;;;;5.78;3.78;;;21.20;69.60;;;;;;5118169;28;20114;-76
2021/08/03 11:40:34;;;;;;;4.63;3.58;;;21.10;69.60;;;;;;5109700;28;20044;-75
2021/08/03 11:43:02;;;;;;;5.88;3.63;;;21.00;69.60;;;;;;5121593;28;20059;-81
2021/08/03 11:45:29;;;;;;;5.85;4.32;;;20.90;69.70;;;;;;5127640;28;20550;-79
2021/08/03 11:47:59;;;;;;;4.72;3.15;;;20.80;69.70;;;;;;5122748;28;20050;-79
2021/08/03 11:50:29;;;;;;;5.70;4.18;;;20.70;69.80;;;;;;5110791;28;20036;-79
2021/08/03 11:53:08;;;;;;;5.20;3.13;;;20.60;69.90;;;;;;5099833;28;20043;-77
2021/08/03 11:55:36;;;;;;;4.28;3.28;;;20.50;70.00;;;;;;5101564;28;20047;-80
2021/08/03 11:58:05;;;;;;;6.90;4.70;;;20.40;70.10;;;;;;5120548;27;20127;-80
2021/08/03 12:00:33;;;;;;;6.57;4.38;;;20.30;70.20;;;;;;5121695;27;20031;-80
2021/08/03 12:03:01;;;;;;;7.50;3.83;;;20.20;70.30;;;;;;5093855;28;20039;-78
2021/08/03 12:05:32;;;;;;;9.07;5.20;;;20.10;70.40;;;;;;5086881;28;20052;-80
2021/08/03 12:08:11;;;;;;;5.60;3.40;;;20.00;70.40;;;;;;5114288;28;20056;-80
2021/08/03 12:10:46;;;;;;;6.43;3.30;;;19.90;70.40;;;;;;5121353;27;20068;-78
2021/08/03 12:13:31;;;;;;;7.18;3.58;;;19.80;70.60;;;;;;5118366;27;20039;-77
2021/08/03 12:16:00;;;;;;;4.57;2.92;;;19.80;70.60;;;;;;5114295;28;20454;-76
2021/08/03 12:18:40;;;;;;;4.80;3.17;;;19.80;70.80;;;;;;5113040;28;20035;-76
2021/08/03 12:21:09;;;;;;;4.43;2.50;;;19.80;70.80;;;;;;5106274;28;20040;-76
2021/08/03 12:23:38;;;;;;;5.60;3.17;;;19.70;70.90;;;;;;5105347;28;20040;-75
2021/08/03 12:26:06;;;;;;;3.38;2.35;;;19.70;71.00;;;;;;5113606;28;20043;-75
2021/08/03 12:28:35;;;;;;;4.53;2.67;;;19.70;70.90;;;;;;5107020;28;20043;-77
2021/08/03 12:31:27;;;;;;;5.63;3.60;;;19.60;70.90;;;;;;5117097;27;20047;-77
2021/08/03 12:34:07;;;;;;;4.82;2.92;;;19.60;70.70;;;;;;5096233;28;20036;-77
2021/08/03 12:36:51;;;;;;;3.97;2.80;;;19.60;70.80;;;;;;5112525;28;20040;-78
2021/08/03 12:39:23;;;;;;;4.63;2.35;;;19.60;70.80;;;;;;5089088;28;20047;-77
2021/08/03 12:44:51;;;;;;;5.05;2.70;;;19.60;70.90;;;;;;5108642;28;20051;-77
2021/08/03 12:47:26;;;;;;;6.38;4.05;;;19.60;71.00;;;;;;5114679;28;20479;-78
2021/08/03 12:50:10;;;;;;;7.07;4.05;;;19.50;70.90;;;;;;5111372;27;20059;-78
2021/08/03 12:52:54;;;;;;;7.60;4.72;;;19.60;70.80;;;;;;5102701;28;20446;-78
2021/08/03 12:56:16;;;;;;;8.00;5.80;;;19.60;70.80;;;;;;5120518;27;20054;-78
2021/08/03 12:58:42;;;;;;;5.68;3.95;;;19.50;70.80;;;;;;5114037;27;20050;-81
2021/08/03 13:01:16;;;;;;;6.28;4.38;;;19.40;70.90;;;;;;5116212;27;20076;-81
2021/08/03 13:03:48;;;;;;;8.00;5.25;;;19.40;70.90;;;;;;5113065;28;20100;-77
2021/08/03 13:06:15;;;;;;;8.07;4.95;;;19.40;70.90;;;;;;5111554;28;20058;-78
2021/08/03 13:08:46;;;;;;;8.85;5.72;;;19.40;70.90;;;;;;5091196;28;20044;-80
2021/08/03 13:11:16;;;;;;;5.85;4.55;;;19.30;70.80;;;;;;5090751;28;20509;-77
2021/08/03 13:13:44;;;;;;;5.10;3.17;;;19.30;71.00;;;;;;5106647;28;20048;-80